createdAt,value
2023-04-23T00:01:28.157Z,4.50
2023-04-23T00:06:32.225Z,4.38
2023-04-23T00:11:36.180Z,3.60
2023-04-23T00:16:39.533Z,3.92
2023-04-23T00:21:41.177Z,4.27
2023-04-23T00:26:42.524Z,4.15
2023-04-23T00:31:46.794Z,4.63
2023-04-23T00:41:49.692Z,5.53
2023-04-23T00:46:52.224Z,4.10
2023-04-23T00:51:53.637Z,4.10
2023-04-23T00:56:58.212Z,4.55
2023-04-23T01:02:00.454Z,3.90
2023-04-23T01:07:03.062Z,4.60
2023-04-23T01:12:06.635Z,3.72
2023-04-23T01:17:09.013Z,4.83
2023-04-23T01:22:13.070Z,4.70
2023-04-23T01:27:14.752Z,5.50
2023-04-23T01:32:17.049Z,5.70
2023-04-23T01:37:19.079Z,5.50
2023-04-23T01:42:20.679Z,6.28
2023-04-23T01:47:22.259Z,5.75
2023-04-23T01:52:23.697Z,6.45
2023-04-23T01:57:26.677Z,6.80
2023-04-23T02:02:28.392Z,7.03
2023-04-23T02:07:31.380Z,6.82
2023-04-23T02:12:33.211Z,7.03
2023-04-23T02:17:35.406Z,6.63
2023-04-23T02:22:41.770Z,6.95
2023-04-23T02:27:43.278Z,7.43
2023-04-23T02:32:44.824Z,8.18
2023-04-23T02:37:46.578Z,7.85
2023-04-23T02:42:49.326Z,7.35
2023-04-23T02:47:51.961Z,8.57
2023-04-23T02:52:53.595Z,7.75
2023-04-23T02:57:55.189Z,7.53
2023-04-23T03:02:56.973Z,7.28
2023-04-23T03:07:59.181Z,9.30
2023-04-23T03:13:00.899Z,7.63
2023-04-23T03:18:04.707Z,6.85
2023-04-23T03:23:09.316Z,5.38
2023-04-23T03:28:11.124Z,6.65
2023-04-23T03:33:12.525Z,6.35
2023-04-23T03:38:14.185Z,6.47
2023-04-23T03:43:17.150Z,6.82
2023-04-23T03:48:18.597Z,6.18
2023-04-23T03:53:20.386Z,6.97
2023-04-23T03:58:21.889Z,7.10
2023-04-23T04:03:23.406Z,7.35
2023-04-23T04:08:26.563Z,7.00
2023-04-23T04:13:28.471Z,6.30
2023-04-23T04:18:30.740Z,6.70
2023-04-23T04:23:33.750Z,6.10
2023-04-23T04:28:37.262Z,6.82
2023-04-23T04:33:39.791Z,6.00
2023-04-23T04:38:41.733Z,6.43
2023-04-23T04:43:45.205Z,6.30
2023-04-23T04:48:47.552Z,6.28
2023-04-23T04:53:49.137Z,6.50
2023-04-23T04:58:52.523Z,6.00
2023-04-23T05:03:54.211Z,6.40
2023-04-23T05:08:56.036Z,6.78
2023-04-23T05:13:57.468Z,7.20
2023-04-23T05:18:58.956Z,6.03
2023-04-23T05:24:01.409Z,6.07
2023-04-23T05:29:02.847Z,9.18
2023-04-23T05:34:04.282Z,5.65
2023-04-23T05:39:05.784Z,6.35
2023-04-23T05:44:07.517Z,5.85
2023-04-23T05:49:09.836Z,5.05
2023-04-23T05:54:11.471Z,5.07
2023-04-23T05:59:12.808Z,4.38
2023-04-23T06:04:15.684Z,6.00
2023-04-23T06:09:18.651Z,4.57
2023-04-23T06:14:20.844Z,5.20
2023-04-23T06:19:25.029Z,5.65
2023-04-23T06:24:26.650Z,5.30
2023-04-23T06:29:28.865Z,5.40
2023-04-23T06:34:30.564Z,5.45
2023-04-23T06:39:31.949Z,5.50
2023-04-23T06:44:34.397Z,5.70
2023-04-23T06:49:36.081Z,4.65
2023-04-23T06:54:37.487Z,5.28
2023-04-23T06:59:39.177Z,4.80
2023-04-23T07:04:41.771Z,4.13
2023-04-23T07:09:43.874Z,4.78
2023-04-23T07:14:46.509Z,4.88
2023-04-23T07:19:48.031Z,4.90
2023-04-23T07:24:49.855Z,4.97
2023-04-23T07:29:51.446Z,4.22
2023-04-23T07:34:52.875Z,4.18
2023-04-23T07:39:54.234Z,4.93
2023-04-23T07:44:55.915Z,5.72
2023-04-23T07:49:57.761Z,4.30
2023-04-23T07:54:59.187Z,4.43
2023-04-23T08:00:00.953Z,5.05
2023-04-23T08:05:02.442Z,4.40
2023-04-23T08:10:06.156Z,4.22
2023-04-23T08:15:08.331Z,4.55
2023-04-23T08:20:10.478Z,5.55
2023-04-23T08:25:13.256Z,4.35
2023-04-23T08:30:14.876Z,5.10
2023-04-23T08:35:16.384Z,5.60
2023-04-23T08:40:17.836Z,6.70
2023-04-23T08:45:19.945Z,6.55
2023-04-23T08:50:21.387Z,5.72
2023-04-23T08:55:23.818Z,4.55
2023-04-23T09:00:26.047Z,3.75
2023-04-23T09:05:28.458Z,4.70
2023-04-23T09:10:29.853Z,3.45
2023-04-23T09:15:31.583Z,3.30
2023-04-23T09:20:33.197Z,2.55
2023-04-23T09:25:34.596Z,2.80
2023-04-23T09:30:43.507Z,2.58
2023-04-23T09:35:48.783Z,3.20
2023-04-23T09:40:50.852Z,6.32
2023-04-23T09:45:53.404Z,4.75
2023-04-23T09:50:55.715Z,3.75
2023-04-23T09:55:57.457Z,2.30
2023-04-23T10:01:09.273Z,3.13
2023-04-23T10:06:30.558Z,2.35
2023-04-23T10:11:37.206Z,2.65
2023-04-23T10:16:48.616Z,2.92
2023-04-23T10:22:08.550Z,2.13
2023-04-23T10:32:28.039Z,1.92
2023-04-23T10:37:30.112Z,2.55
2023-04-23T10:42:31.825Z,1.67
2023-04-23T10:47:33.324Z,2.25
2023-04-23T10:52:35.535Z,3.60
2023-04-23T10:58:00.775Z,1.88
2023-04-23T11:03:02.972Z,2.88
2023-04-23T11:13:22.189Z,3.47
2023-04-23T11:18:23.917Z,1.88
2023-04-23T11:23:33.036Z,3.17
2023-04-23T11:28:36.904Z,1.95
2023-04-23T11:33:38.955Z,3.22
2023-04-23T11:38:41.441Z,2.30
2023-04-23T11:43:43.681Z,2.22
2023-04-23T11:48:45.330Z,1.60
2023-04-23T11:53:48.620Z,1.50
2023-04-23T11:58:59.877Z,2.30
2023-04-23T12:04:09.810Z,1.83
2023-04-23T12:09:13.155Z,2.90
2023-04-23T12:14:16.400Z,3.10
2023-04-23T12:19:20.811Z,2.80
2023-04-23T12:24:23.833Z,2.08
2023-04-23T12:29:26.652Z,2.45
2023-04-23T12:34:28.106Z,3.10
2023-04-23T12:39:32.402Z,2.83
2023-04-23T12:44:37.560Z,2.22
2023-04-23T12:49:40.689Z,3.40
2023-04-23T12:59:46.166Z,1.92
2023-04-23T13:04:47.608Z,2.25
2023-04-23T13:09:48.952Z,2.05
2023-04-23T13:14:50.382Z,2.28
2023-04-23T13:19:53.288Z,1.20
2023-04-23T13:24:57.176Z,2.25
2023-04-23T13:29:58.836Z,2.97
2023-04-23T13:35:03.137Z,1.88
2023-04-23T13:40:05.912Z,1.30
2023-04-23T13:45:08.128Z,3.10
2023-04-23T13:50:10.316Z,1.95
2023-04-23T13:55:11.792Z,1.40
2023-04-23T14:00:14.216Z,0.90
2023-04-23T14:05:15.703Z,0.90
2023-04-23T14:10:18.077Z,1.17
2023-04-23T14:15:20.120Z,0.80
2023-04-23T14:20:21.651Z,1.20
2023-04-23T14:25:34.357Z,1.38
2023-04-23T14:30:35.970Z,1.43
2023-04-23T14:35:43.501Z,1.83
2023-04-23T14:40:45.122Z,1.60
2023-04-23T14:45:47.127Z,0.77
2023-04-23T14:50:48.618Z,1.50
2023-04-23T14:55:49.954Z,1.60
2023-04-23T15:00:51.362Z,1.27
2023-04-23T15:05:53.015Z,2.17
2023-04-23T15:10:54.464Z,0.95
2023-04-23T15:16:00.100Z,1.35
2023-04-23T15:21:04.781Z,1.60
2023-04-23T15:26:06.276Z,4.50
2023-04-23T15:31:08.210Z,1.45
2023-04-23T15:36:10.535Z,0.93
2023-04-23T15:41:12.926Z,0.55
2023-04-23T15:46:14.675Z,2.10
2023-04-23T15:51:16.430Z,1.33
2023-04-23T15:56:17.884Z,1.08
2023-04-23T16:01:20.041Z,1.52
2023-04-23T16:06:21.726Z,1.58
2023-04-23T16:11:25.215Z,2.47
2023-04-23T16:16:26.925Z,0.82
2023-04-23T16:21:28.743Z,2.40
2023-04-23T16:26:30.269Z,1.35
2023-04-23T16:31:32.158Z,1.88
2023-04-23T16:36:33.831Z,0.88
2023-04-23T16:41:35.310Z,2.85
2023-04-23T16:46:37.392Z,1.67
2023-04-23T16:51:39.002Z,2.83
2023-04-23T16:56:42.219Z,3.05
2023-04-23T17:01:43.770Z,2.10
2023-04-23T17:06:45.877Z,0.80
2023-04-23T17:11:47.393Z,2.00
2023-04-23T17:16:51.479Z,2.25
2023-04-23T17:21:52.974Z,1.77
2023-04-23T17:26:54.444Z,1.20
2023-04-23T17:31:56.255Z,1.08
2023-04-23T17:36:57.677Z,3.55
2023-04-23T17:41:59.236Z,1.60
2023-04-23T17:47:01.950Z,4.43
2023-04-23T17:52:03.493Z,2.55
2023-04-23T17:57:06.666Z,1.27
2023-04-23T18:02:08.684Z,1.93
2023-04-23T18:07:10.878Z,1.80
2023-04-23T18:12:12.354Z,1.83
2023-04-23T18:17:17.629Z,1.25
2023-04-23T18:22:19.415Z,1.80
2023-04-23T18:27:20.794Z,1.23
2023-04-23T18:32:31.566Z,2.78
2023-04-23T18:37:53.005Z,1.90
2023-04-23T18:42:54.747Z,2.58
2023-04-23T18:48:03.282Z,3.22
2023-04-23T18:53:05.440Z,2.47
2023-04-23T18:58:08.172Z,2.35
2023-04-23T19:03:23.703Z,1.85
2023-04-23T19:08:30.913Z,1.05
2023-04-23T19:13:32.576Z,1.50
2023-04-23T19:18:34.015Z,2.40
2023-04-23T19:23:36.766Z,4.80
2023-04-23T19:28:40.025Z,3.20
2023-04-23T19:33:45.355Z,2.60
2023-04-23T19:38:46.702Z,1.42
2023-04-23T19:43:48.183Z,1.75
2023-04-23T19:48:49.575Z,1.85
2023-04-23T19:53:51.279Z,2.25
2023-04-23T19:58:52.892Z,1.83
2023-04-23T20:03:55.516Z,1.38
2023-04-23T20:09:15.943Z,2.58
2023-04-23T20:14:17.984Z,1.83
2023-04-23T20:19:19.457Z,2.40
2023-04-23T20:24:23.608Z,1.90
2023-04-23T20:29:25.127Z,1.35
2023-04-23T20:34:27.322Z,2.88
2023-04-23T20:39:29.476Z,2.00
2023-04-23T20:44:31.906Z,1.77
2023-04-23T20:49:33.559Z,2.03
2023-04-23T20:54:36.602Z,2.25
2023-04-23T20:59:38.202Z,7.57
2023-04-23T21:04:40.127Z,2.80
2023-04-23T21:09:42.057Z,3.13
2023-04-23T21:14:43.934Z,1.25
2023-04-23T21:19:45.938Z,1.17
2023-04-23T21:24:47.555Z,1.50
2023-04-23T21:29:51.069Z,2.05
2023-04-23T21:34:52.573Z,1.47
2023-04-23T21:39:54.097Z,2.28
2023-04-23T21:44:55.449Z,2.60
2023-04-23T21:49:57.629Z,2.65
2023-04-23T21:54:59.057Z,1.42
2023-04-23T22:00:00.632Z,1.08
2023-04-23T22:05:02.021Z,0.98
2023-04-23T22:10:03.907Z,2.08
2023-04-23T22:15:06.937Z,1.85
2023-04-23T22:20:10.553Z,1.02
2023-04-23T22:25:13.012Z,1.00
2023-04-23T22:30:15.873Z,1.42
2023-04-23T22:35:17.321Z,2.25
2023-04-23T22:40:19.171Z,3.28
2023-04-23T22:45:20.719Z,1.77
2023-04-23T22:50:23.302Z,1.52
2023-04-23T22:55:24.734Z,1.38
2023-04-23T23:00:26.439Z,1.15
2023-04-23T23:05:27.872Z,1.70
2023-04-23T23:10:29.744Z,1.92
2023-04-23T23:15:31.358Z,1.40
2023-04-23T23:20:32.837Z,0.95
2023-04-23T23:25:38.177Z,2.22
2023-04-23T23:30:39.685Z,1.13
2023-04-23T23:35:42.631Z,0.82
2023-04-23T23:40:45.127Z,1.10
2023-04-23T23:45:46.608Z,0.95
2023-04-23T23:50:48.060Z,0.93
2023-04-23T23:55:49.897Z,2.17
